createdAt,value
2024-02-20T00:00:49.896Z,6.86
2024-02-20T00:03:17.679Z,7.08
2024-02-20T00:05:45.077Z,7.09
2024-02-20T00:08:12.544Z,6.91
2024-02-20T00:10:40.189Z,6.70
2024-02-20T00:13:07.737Z,7.36
2024-02-20T00:15:35.830Z,7.94
2024-02-20T00:18:04.961Z,8.27
2024-02-20T00:20:32.515Z,8.46
2024-02-20T00:22:59.985Z,8.54
2024-02-20T00:25:27.694Z,7.93
2024-02-20T00:27:55.207Z,8.41
2024-02-20T00:30:22.732Z,8.46
2024-02-20T00:32:51.809Z,8.65
2024-02-20T00:35:19.418Z,8.68
2024-02-20T00:37:47.003Z,8.64
2024-02-20T00:40:14.808Z,8.73
2024-02-20T00:42:43.121Z,8.56
2024-02-20T00:45:10.668Z,7.82
2024-02-20T00:47:38.369Z,8.23
2024-02-20T00:50:06.684Z,8.57
2024-02-20T00:52:34.251Z,8.57
2024-02-20T00:55:02.141Z,8.68
2024-02-20T00:57:29.568Z,8.70
2024-02-20T00:59:57.001Z,8.66
2024-02-20T01:02:24.710Z,7.74
2024-02-20T01:04:52.663Z,8.02
2024-02-20T01:07:20.851Z,8.22
2024-02-20T01:09:48.695Z,8.13
2024-02-20T01:12:16.166Z,8.26
2024-02-20T01:14:45.497Z,8.42
2024-02-20T01:17:13.239Z,8.54
2024-02-20T01:19:40.673Z,8.11
2024-02-20T01:22:08.211Z,8.02
2024-02-20T01:24:35.977Z,8.22
2024-02-20T01:27:04.368Z,8.43
2024-02-20T01:29:32.469Z,8.31
2024-02-20T01:32:00.155Z,8.30
2024-02-20T01:34:27.812Z,8.35
2024-02-20T01:36:55.905Z,8.33
2024-02-20T01:39:23.693Z,8.22
2024-02-20T01:41:51.134Z,8.30
2024-02-20T01:44:18.638Z,8.30
2024-02-20T01:46:46.938Z,7.70
2024-02-20T01:49:14.689Z,7.85
2024-02-20T01:51:42.194Z,7.59
2024-02-20T01:54:09.899Z,7.81
2024-02-20T01:56:37.316Z,8.09
2024-02-20T01:59:05.542Z,8.20
2024-02-20T02:01:33.218Z,8.19
2024-02-20T02:04:01.664Z,8.31
2024-02-20T02:06:30.084Z,8.37
2024-02-20T02:08:57.776Z,7.99
2024-02-20T02:11:25.644Z,7.73
2024-02-20T02:13:53.361Z,8.27
2024-02-20T02:16:20.973Z,8.36
2024-02-20T02:18:50.190Z,8.48
2024-02-20T02:21:17.703Z,8.17
2024-02-20T02:23:45.191Z,8.23
2024-02-20T02:26:12.916Z,8.23
2024-02-20T02:28:40.479Z,7.94
2024-02-20T02:31:07.981Z,8.06
2024-02-20T02:33:35.786Z,8.28
2024-02-20T02:36:03.394Z,8.26
2024-02-20T02:38:31.208Z,8.14
2024-02-20T02:41:00.627Z,8.40
2024-02-20T02:43:28.080Z,8.41
2024-02-20T02:45:55.551Z,8.43
2024-02-20T02:48:23.402Z,8.31
2024-02-20T02:50:50.916Z,8.23
2024-02-20T02:53:18.368Z,8.23
2024-02-20T02:55:46.061Z,8.20
2024-02-20T02:58:13.633Z,8.11
2024-02-20T03:00:41.673Z,8.04
2024-02-20T03:03:09.610Z,8.01
2024-02-20T03:05:39.296Z,7.87
2024-02-20T03:08:07.392Z,8.00
2024-02-20T03:10:35.229Z,8.03
2024-02-20T03:13:02.787Z,7.98
2024-02-20T03:15:30.655Z,8.01
2024-02-20T03:17:58.390Z,7.95
2024-02-20T03:20:25.981Z,8.01
2024-02-20T03:22:54.808Z,7.89
2024-02-20T03:25:22.566Z,7.76
2024-02-20T03:27:51.350Z,7.95
2024-02-20T03:30:20.126Z,7.99
2024-02-20T03:32:47.879Z,8.07
2024-02-20T03:35:22.841Z,7.86
2024-02-20T03:37:50.754Z,7.83
2024-02-20T03:40:18.285Z,7.70
2024-02-20T03:42:46.099Z,7.70
2024-02-20T03:45:13.751Z,7.91
2024-02-20T03:47:41.373Z,7.62
2024-02-20T03:50:09.696Z,7.80
2024-02-20T03:52:37.465Z,7.85
2024-02-20T03:55:05.341Z,7.89
2024-02-20T03:57:32.904Z,7.84
2024-02-20T04:00:03.365Z,7.18
2024-02-20T04:02:32.061Z,7.66
2024-02-20T04:04:59.880Z,7.54
2024-02-20T04:07:27.471Z,7.77
2024-02-20T04:09:55.023Z,7.84
2024-02-20T04:12:22.738Z,7.28
2024-02-20T04:14:50.174Z,7.79
2024-02-20T04:17:17.607Z,8.06
2024-02-20T04:19:45.334Z,7.33
2024-02-20T04:22:12.924Z,6.85
2024-02-20T04:24:40.624Z,7.65
2024-02-20T04:27:08.299Z,7.72
2024-02-20T04:29:35.716Z,7.05
2024-02-20T04:32:03.269Z,6.87
2024-02-20T04:34:31.038Z,6.86
2024-02-20T04:36:58.480Z,6.93
2024-02-20T04:39:25.883Z,7.08
2024-02-20T04:41:53.556Z,6.84
2024-02-20T04:44:20.970Z,6.86
2024-02-20T04:46:48.533Z,7.49
2024-02-20T04:49:16.363Z,7.77
2024-02-20T04:51:43.975Z,7.90
2024-02-20T04:54:11.428Z,8.13
2024-02-20T04:56:39.152Z,7.91
2024-02-20T04:59:06.626Z,8.09
2024-02-20T05:01:34.327Z,8.13
2024-02-20T05:04:02.325Z,7.86
2024-02-20T05:06:29.871Z,7.96
2024-02-20T05:08:57.395Z,8.14
2024-02-20T05:11:25.087Z,8.11
2024-02-20T05:13:52.553Z,8.11
2024-02-20T05:16:19.952Z,8.10
2024-02-20T05:18:48.048Z,8.04
2024-02-20T05:21:15.516Z,7.99
2024-02-20T05:23:42.996Z,7.87
2024-02-20T05:26:10.634Z,7.96
2024-02-20T05:28:38.109Z,7.91
2024-02-20T05:31:21.737Z,8.04
2024-02-20T05:33:49.648Z,7.92
2024-02-20T05:36:17.162Z,7.93
2024-02-20T05:38:44.573Z,7.98
2024-02-20T05:41:12.344Z,8.04
2024-02-20T05:43:39.790Z,7.87
2024-02-20T05:46:07.280Z,7.97
2024-02-20T05:48:35.090Z,7.87
2024-02-20T05:51:02.608Z,7.87
2024-02-20T05:53:30.579Z,7.92
2024-02-20T05:55:58.270Z,6.42
2024-02-20T05:58:25.701Z,6.32
2024-02-20T06:00:53.466Z,5.69
2024-02-20T06:03:21.137Z,5.74
2024-02-20T06:05:49.761Z,6.13
2024-02-20T06:08:17.190Z,6.50
2024-02-20T06:10:45.141Z,6.48
2024-02-20T06:13:12.684Z,6.76
2024-02-20T06:15:40.153Z,6.11
2024-02-20T06:18:08.078Z,5.98
2024-02-20T06:20:37.679Z,6.91
2024-02-20T06:23:06.252Z,6.63
2024-02-20T06:25:34.010Z,6.73
2024-02-20T06:28:02.144Z,6.34
2024-02-20T06:30:29.939Z,5.83
2024-02-20T06:32:57.771Z,6.20
2024-02-20T06:35:25.401Z,6.31
2024-02-20T06:37:52.891Z,6.24
2024-02-20T06:40:20.636Z,6.76
2024-02-20T06:42:48.096Z,7.45
2024-02-20T06:45:16.170Z,7.77
2024-02-20T06:47:44.021Z,7.38
2024-02-20T06:50:13.876Z,7.43
2024-02-20T06:52:41.713Z,7.64
2024-02-20T06:55:09.796Z,7.87
2024-02-20T06:57:40.756Z,8.31
2024-02-20T07:00:12.985Z,7.81
2024-02-20T07:02:44.205Z,7.92
2024-02-20T07:05:13.096Z,8.34
2024-02-20T07:07:41.052Z,8.46
2024-02-20T07:10:09.603Z,8.59
2024-02-20T07:12:37.257Z,7.85
2024-02-20T07:15:07.887Z,8.05
2024-02-20T07:17:35.762Z,8.45
2024-02-20T07:20:04.519Z,8.40
2024-02-20T07:22:34.013Z,8.38
2024-02-20T07:25:01.764Z,8.11
2024-02-20T07:27:29.296Z,8.50
2024-02-20T07:29:57.128Z,8.00
2024-02-20T07:32:24.553Z,8.03
2024-02-20T07:34:52.183Z,7.99
2024-02-20T07:37:20.157Z,7.96
2024-02-20T07:39:47.638Z,7.77
2024-02-20T07:42:15.120Z,8.01
2024-02-20T07:44:42.785Z,7.72
2024-02-20T07:47:10.212Z,8.03
2024-02-20T07:49:37.909Z,8.33
2024-02-20T07:52:06.564Z,8.11
2024-02-20T07:54:34.177Z,8.38
2024-02-20T07:57:02.642Z,8.46
2024-02-20T07:59:30.391Z,8.80
2024-02-20T08:01:58.728Z,8.64
2024-02-20T08:04:26.775Z,8.65
2024-02-20T08:06:55.603Z,8.34
2024-02-20T08:09:23.235Z,8.24
2024-02-20T08:11:52.094Z,8.64
2024-02-20T08:14:20.778Z,8.71
2024-02-20T08:16:51.024Z,9.12
2024-02-20T08:19:18.882Z,9.14
2024-02-20T08:21:46.432Z,9.11
2024-02-20T08:24:13.879Z,9.14
2024-02-20T08:26:41.611Z,8.94
2024-02-20T08:29:09.693Z,9.29
2024-02-20T08:31:37.371Z,9.43
2024-02-20T08:34:07.285Z,9.82
2024-02-20T08:36:39.014Z,10.49
2024-02-20T08:39:07.156Z,10.54
2024-02-20T08:41:35.174Z,10.61
2024-02-20T08:44:02.679Z,10.92
2024-02-20T08:46:32.483Z,10.99
2024-02-20T08:49:00.193Z,11.17
2024-02-20T08:51:28.031Z,11.31
2024-02-20T08:53:55.922Z,11.64
2024-02-20T08:56:23.581Z,12.29
2024-02-20T08:58:52.795Z,11.36
2024-02-20T09:01:20.697Z,11.78
2024-02-20T09:03:48.418Z,11.88
2024-02-20T09:06:15.894Z,12.03
2024-02-20T09:08:43.635Z,12.00
2024-02-20T09:11:11.351Z,12.24
2024-02-20T09:13:39.565Z,12.19
2024-02-20T09:16:07.446Z,12.64
2024-02-20T09:18:35.895Z,12.99
2024-02-20T09:21:08.258Z,12.94
2024-02-20T09:23:39.492Z,12.97
2024-02-20T09:26:07.728Z,13.35
2024-02-20T09:28:35.516Z,13.55
2024-02-20T09:31:03.447Z,14.03
2024-02-20T09:33:31.293Z,14.00
2024-02-20T09:35:58.979Z,13.48
2024-02-20T09:38:26.987Z,14.10
2024-02-20T09:40:57.109Z,13.60
2024-02-20T09:43:26.880Z,13.09
2024-02-20T09:45:54.642Z,13.72
2024-02-20T09:48:22.209Z,13.87
2024-02-20T09:50:49.838Z,13.00
2024-02-20T09:53:20.694Z,13.10
2024-02-20T09:55:51.272Z,13.39
2024-02-20T09:58:19.169Z,13.45
2024-02-20T10:00:46.725Z,13.45
2024-02-20T10:03:14.734Z,13.54
2024-02-20T10:05:48.466Z,13.13
2024-02-20T10:08:16.357Z,13.07
2024-02-20T10:10:46.102Z,13.03
2024-02-20T10:13:13.951Z,12.70
2024-02-20T10:15:41.700Z,12.48
2024-02-20T10:18:09.345Z,12.73
2024-02-20T10:20:37.138Z,12.41
2024-02-20T10:23:09.450Z,11.86
2024-02-20T10:25:37.491Z,11.95
2024-02-20T10:28:06.969Z,11.90
2024-02-20T10:30:34.833Z,12.19
2024-02-20T10:33:02.504Z,11.84
2024-02-20T10:35:30.377Z,12.56
2024-02-20T10:38:04.503Z,12.28
2024-02-20T10:40:33.059Z,12.23
2024-02-20T10:43:02.044Z,12.38
2024-02-20T10:45:30.181Z,11.71
2024-02-20T10:48:00.319Z,12.19
2024-02-20T10:50:28.958Z,12.50
2024-02-20T10:52:56.800Z,12.25
2024-02-20T10:55:32.169Z,12.08
2024-02-20T10:58:04.539Z,12.46
2024-02-20T11:00:36.292Z,12.44
2024-02-20T11:03:06.054Z,12.22
2024-02-20T11:05:34.404Z,12.26
2024-02-20T11:08:07.072Z,11.86
2024-02-20T11:10:36.914Z,12.25
2024-02-20T11:13:26.105Z,12.79
2024-02-20T11:15:54.499Z,12.89
2024-02-20T11:18:22.970Z,12.65
2024-02-20T11:21:03.697Z,12.76
2024-02-20T11:23:32.257Z,12.72
2024-02-20T11:26:10.115Z,12.61
2024-02-20T11:28:38.446Z,12.51
2024-02-20T11:31:06.767Z,11.96
2024-02-20T11:33:34.934Z,12.54
2024-02-20T11:36:03.439Z,12.72
2024-02-20T11:38:31.459Z,12.71
2024-02-20T11:40:59.030Z,12.17
2024-02-20T11:43:30.082Z,12.43
2024-02-20T11:46:01.400Z,13.02
2024-02-20T11:48:30.112Z,12.62
2024-02-20T11:50:58.759Z,12.77
2024-02-20T11:53:26.963Z,12.87
2024-02-20T11:55:55.359Z,12.79
2024-02-20T11:58:26.971Z,12.99
2024-02-20T12:01:09.423Z,12.26
2024-02-20T12:03:38.354Z,12.35
2024-02-20T12:06:10.405Z,13.16
2024-02-20T12:08:45.083Z,13.42
2024-02-20T12:11:15.399Z,13.36
2024-02-20T12:13:43.404Z,12.27
2024-02-20T12:16:26.499Z,13.09
2024-02-20T12:18:55.048Z,12.86
2024-02-20T12:21:34.972Z,12.77
2024-02-20T12:24:08.635Z,13.09
2024-02-20T12:26:36.297Z,12.72
2024-02-20T12:29:04.026Z,13.25
2024-02-20T12:31:33.798Z,13.36
2024-02-20T12:34:04.015Z,13.12
2024-02-20T12:36:32.833Z,12.84
2024-02-20T12:39:02.328Z,13.21
2024-02-20T12:41:31.048Z,13.34
2024-02-20T12:43:58.955Z,13.62
2024-02-20T12:46:26.594Z,13.15
2024-02-20T12:48:55.282Z,13.32
2024-02-20T12:51:24.881Z,13.66
2024-02-20T12:53:52.482Z,13.43
2024-02-20T12:56:20.016Z,13.02
2024-02-20T12:58:48.163Z,12.55
2024-02-20T13:01:16.441Z,12.86
2024-02-20T13:03:44.417Z,13.15
2024-02-20T13:06:12.253Z,13.05
2024-02-20T13:08:39.964Z,12.87
2024-02-20T13:11:08.155Z,12.61
2024-02-20T13:13:36.248Z,13.07
2024-02-20T13:16:04.543Z,13.00
2024-02-20T13:18:32.141Z,12.71
2024-02-20T13:21:03.565Z,13.15
2024-02-20T13:23:31.138Z,13.22
2024-02-20T13:25:58.733Z,13.19
2024-02-20T13:28:28.109Z,13.30
2024-02-20T13:30:55.652Z,12.60
2024-02-20T13:33:23.220Z,12.95
2024-02-20T13:35:50.999Z,12.83
2024-02-20T13:38:18.538Z,12.36
2024-02-20T13:40:46.517Z,12.61
2024-02-20T13:43:14.329Z,12.60
2024-02-20T13:45:48.783Z,12.76
2024-02-20T13:48:18.446Z,12.42
2024-02-20T13:50:48.250Z,12.63
2024-02-20T13:53:16.240Z,12.32
2024-02-20T13:55:48.660Z,12.34
2024-02-20T13:58:17.089Z,12.39
2024-02-20T14:00:45.242Z,12.70
2024-02-20T14:03:13.412Z,12.69
2024-02-20T14:05:42.769Z,12.50
2024-02-20T14:08:13.332Z,12.01
2024-02-20T14:10:41.337Z,12.08
2024-02-20T14:13:09.895Z,12.27
2024-02-20T14:15:37.597Z,12.60
2024-02-20T14:18:05.819Z,12.81
2024-02-20T14:20:35.899Z,12.48
2024-02-20T14:23:05.638Z,12.98
2024-02-20T14:25:34.766Z,12.43
2024-02-20T14:28:02.403Z,12.50
2024-02-20T14:30:32.709Z,13.05
2024-02-20T14:33:05.030Z,13.43
2024-02-20T14:35:32.681Z,12.52
2024-02-20T14:38:00.566Z,12.35
2024-02-20T14:40:28.384Z,12.42
2024-02-20T14:42:55.827Z,12.06
2024-02-20T14:45:23.833Z,12.42
2024-02-20T14:47:51.977Z,12.41
2024-02-20T14:50:20.350Z,12.64
2024-02-20T14:52:48.069Z,12.45
2024-02-20T14:55:15.924Z,12.08
2024-02-20T14:57:48.676Z,12.64
2024-02-20T15:00:17.516Z,12.06
2024-02-20T15:02:45.166Z,12.20
2024-02-20T15:05:13.705Z,11.51
2024-02-20T15:07:41.788Z,12.56
2024-02-20T15:10:16.557Z,12.56
2024-02-20T15:12:44.378Z,12.31
2024-02-20T15:15:13.198Z,12.57
2024-02-20T15:17:42.518Z,12.66
2024-02-20T15:20:11.864Z,12.59
2024-02-20T15:22:39.432Z,12.98
2024-02-20T15:25:19.860Z,12.35
2024-02-20T15:27:50.432Z,11.91
2024-02-20T15:30:18.713Z,12.31
2024-02-20T15:32:47.350Z,12.09
2024-02-20T15:35:15.891Z,12.41
2024-02-20T15:37:46.807Z,12.40
2024-02-20T15:40:15.197Z,11.99
2024-02-20T15:42:45.486Z,12.36
2024-02-20T15:45:13.139Z,12.20
2024-02-20T15:47:41.723Z,12.20
2024-02-20T15:50:10.522Z,12.54
2024-02-20T15:52:39.264Z,12.13
2024-02-20T15:55:07.702Z,11.61
2024-02-20T15:57:35.418Z,12.33
2024-02-20T16:00:03.027Z,12.68
2024-02-20T16:02:39.972Z,11.29
2024-02-20T16:05:08.350Z,11.85
2024-02-20T16:07:35.952Z,11.54
2024-02-20T16:10:03.519Z,12.22
2024-02-20T16:12:31.474Z,12.27
2024-02-20T16:15:01.249Z,12.42
2024-02-20T16:17:30.728Z,12.61
2024-02-20T16:19:58.522Z,12.43
2024-02-20T16:22:26.017Z,12.55
2024-02-20T16:24:53.575Z,12.48
2024-02-20T16:27:22.067Z,12.46
2024-02-20T16:29:57.008Z,12.33
2024-02-20T16:32:25.796Z,12.30
2024-02-20T16:34:53.780Z,12.23
2024-02-20T16:37:23.273Z,12.20
2024-02-20T16:39:55.002Z,12.13
2024-02-20T16:42:22.556Z,12.33
2024-02-20T16:44:50.063Z,12.24
2024-02-20T16:47:17.770Z,12.13
2024-02-20T16:49:45.237Z,11.92
2024-02-20T16:52:12.894Z,11.96
2024-02-20T16:54:40.615Z,11.95
2024-02-20T16:57:13.443Z,11.67
2024-02-20T16:59:41.621Z,11.77
2024-02-20T17:02:09.142Z,11.75
2024-02-20T17:04:37.346Z,11.65
2024-02-20T17:07:05.176Z,11.74
2024-02-20T17:09:33.195Z,11.75
2024-02-20T17:12:00.788Z,11.55
2024-02-20T17:14:28.566Z,11.45
2024-02-20T17:16:56.334Z,11.50
2024-02-20T17:19:23.928Z,11.44
2024-02-20T17:21:51.733Z,11.40
2024-02-20T17:24:19.141Z,11.41
2024-02-20T17:26:50.063Z,11.44
2024-02-20T17:29:17.912Z,11.32
2024-02-20T17:31:45.713Z,11.31
2024-02-20T17:34:13.251Z,11.27
2024-02-20T17:36:41.138Z,11.26
2024-02-20T17:39:09.971Z,11.39
2024-02-20T17:41:38.452Z,11.37
2024-02-20T17:44:09.260Z,11.51
2024-02-20T17:46:36.915Z,11.51
2024-02-20T17:49:06.718Z,11.51
2024-02-20T17:51:37.175Z,10.70
2024-02-20T17:54:07.421Z,10.82
2024-02-20T17:56:36.848Z,10.73
2024-02-20T17:59:05.043Z,10.78
2024-02-20T18:01:35.805Z,10.88
2024-02-20T18:04:03.645Z,10.85
2024-02-20T18:06:31.117Z,10.71
2024-02-20T18:08:58.578Z,10.62
2024-02-20T18:11:28.992Z,10.69
2024-02-20T18:13:56.920Z,10.55
2024-02-20T18:16:24.443Z,10.74
2024-02-20T18:18:52.258Z,10.76
2024-02-20T18:21:19.727Z,10.70
2024-02-20T18:23:47.182Z,10.78
2024-02-20T18:26:14.907Z,10.65
2024-02-20T18:28:42.970Z,10.57
2024-02-20T18:31:10.575Z,10.53
2024-02-20T18:33:38.306Z,10.34
2024-02-20T18:36:08.398Z,10.45
2024-02-20T18:38:35.878Z,10.43
2024-02-20T18:41:04.094Z,10.37
2024-02-20T18:43:31.917Z,10.52
2024-02-20T18:45:59.429Z,10.70
2024-02-20T18:48:30.218Z,10.34
2024-02-20T18:50:58.684Z,10.49
2024-02-20T18:53:26.182Z,10.48
2024-02-20T18:55:54.868Z,10.13
2024-02-20T18:58:23.972Z,10.40
2024-02-20T19:00:54.353Z,10.30
2024-02-20T19:03:22.194Z,9.66
2024-02-20T19:05:50.727Z,10.50
2024-02-20T19:08:19.083Z,10.31
2024-02-20T19:10:46.876Z,10.31
2024-02-20T19:13:14.424Z,10.43
2024-02-20T19:15:41.946Z,10.35
2024-02-20T19:18:09.803Z,10.43
2024-02-20T19:20:38.291Z,10.45
2024-02-20T19:23:05.864Z,9.78
2024-02-20T19:25:34.019Z,10.09
2024-02-20T19:28:01.730Z,10.37
2024-02-20T19:30:30.104Z,9.96
2024-02-20T19:32:58.102Z,10.43
2024-02-20T19:35:25.924Z,10.45
2024-02-20T19:37:53.521Z,10.43
2024-02-20T19:40:21.393Z,9.73
2024-02-20T19:42:48.899Z,9.78
2024-02-20T19:45:16.417Z,9.75
2024-02-20T19:47:45.502Z,9.36
2024-02-20T19:50:12.974Z,9.72
2024-02-20T19:52:40.587Z,9.67
2024-02-20T19:55:08.942Z,9.82
2024-02-20T19:57:36.460Z,9.76
2024-02-20T20:00:05.217Z,10.12
2024-02-20T20:02:35.583Z,9.79
2024-02-20T20:05:03.659Z,9.85
2024-02-20T20:07:31.319Z,10.44
2024-02-20T20:09:59.057Z,10.62
2024-02-20T20:12:26.484Z,10.84
2024-02-20T20:14:55.741Z,10.63
2024-02-20T20:17:25.651Z,10.14
2024-02-20T20:19:53.241Z,10.45
2024-02-20T20:22:20.905Z,10.44
2024-02-20T20:24:48.667Z,10.53
2024-02-20T20:27:16.457Z,10.98
2024-02-20T20:29:44.149Z,9.98
2024-02-20T20:32:13.892Z,9.22
2024-02-20T20:34:42.729Z,9.32
2024-02-20T20:37:10.214Z,10.38
2024-02-20T20:39:39.224Z,9.78
2024-02-20T20:42:06.972Z,9.24
2024-02-20T20:44:38.164Z,9.75
2024-02-20T20:47:05.993Z,9.48
2024-02-20T20:49:33.630Z,8.97
2024-02-20T20:52:01.168Z,9.16
2024-02-20T20:54:29.052Z,9.26
2024-02-20T20:56:56.582Z,9.42
2024-02-20T20:59:27.192Z,9.42
2024-02-20T21:01:56.114Z,9.05
2024-02-20T21:04:23.845Z,8.33
2024-02-20T21:06:51.421Z,8.65
2024-02-20T21:09:19.199Z,8.64
2024-02-20T21:11:46.703Z,8.63
2024-02-20T21:14:14.243Z,8.47
2024-02-20T21:16:42.013Z,8.74
2024-02-20T21:19:09.503Z,8.86
2024-02-20T21:21:41.696Z,8.37
2024-02-20T21:24:11.400Z,8.25
2024-02-20T21:26:42.069Z,8.00
2024-02-20T21:29:13.268Z,8.17
2024-02-20T21:31:41.021Z,7.90
2024-02-20T21:34:09.110Z,8.30
2024-02-20T21:36:38.276Z,8.48
2024-02-20T21:39:06.003Z,8.85
2024-02-20T21:41:33.783Z,8.85
2024-02-20T21:44:01.578Z,8.65
2024-02-20T21:46:29.012Z,8.85
2024-02-20T21:48:56.522Z,8.71
2024-02-20T21:51:24.338Z,9.62
2024-02-20T21:53:52.053Z,9.38
2024-02-20T21:56:20.021Z,9.78
2024-02-20T21:58:47.836Z,9.77
2024-02-20T22:01:15.429Z,9.61
2024-02-20T22:03:43.214Z,9.86
2024-02-20T22:06:10.631Z,10.09
2024-02-20T22:08:38.631Z,10.36
2024-02-20T22:11:06.496Z,10.41
2024-02-20T22:13:33.986Z,9.16
2024-02-20T22:16:01.525Z,9.09
2024-02-20T22:18:29.306Z,9.00
2024-02-20T22:20:57.093Z,8.88
2024-02-20T22:23:24.552Z,8.76
2024-02-20T22:25:52.448Z,9.50
2024-02-20T22:28:20.006Z,9.33
2024-02-20T22:30:47.489Z,9.55
2024-02-20T22:33:15.264Z,9.04
2024-02-20T22:35:42.761Z,8.97
2024-02-20T22:38:10.134Z,9.42
2024-02-20T22:40:37.886Z,9.21
2024-02-20T22:43:05.456Z,8.90
2024-02-20T22:45:33.049Z,9.43
2024-02-20T22:48:00.830Z,8.67
2024-02-20T22:50:28.399Z,8.21
2024-02-20T22:52:55.928Z,8.47
2024-02-20T22:55:24.104Z,7.83
2024-02-20T22:57:51.652Z,7.74
2024-02-20T23:00:19.482Z,8.49
2024-02-20T23:02:47.249Z,8.28
2024-02-20T23:05:14.978Z,8.32
2024-02-20T23:07:42.607Z,8.63
2024-02-20T23:10:10.545Z,8.50
2024-02-20T23:12:38.004Z,8.13
2024-02-20T23:15:06.036Z,8.19
2024-02-20T23:17:33.746Z,7.83
2024-02-20T23:20:01.223Z,8.01
2024-02-20T23:22:28.641Z,8.31
2024-02-20T23:24:56.357Z,7.74
2024-02-20T23:27:23.958Z,8.11
2024-02-20T23:29:51.448Z,8.83
2024-02-20T23:32:19.120Z,7.94
2024-02-20T23:34:46.584Z,8.11
2024-02-20T23:37:14.033Z,8.44
2024-02-20T23:39:41.778Z,8.37
2024-02-20T23:42:11.462Z,7.59
2024-02-20T23:44:38.994Z,8.42
2024-02-20T23:47:07.398Z,8.80
2024-02-20T23:49:34.941Z,7.95
2024-02-20T23:52:02.541Z,8.05
2024-02-20T23:54:30.718Z,7.90
2024-02-20T23:56:59.800Z,8.20
2024-02-20T23:59:27.286Z,7.90
